createdAt,value
2022-10-02T00:01:18.194Z,9.13
2022-10-02T00:03:47.286Z,7.82
2022-10-02T00:06:21.397Z,8.98
2022-10-02T00:08:53.061Z,8.32
2022-10-02T00:11:25.740Z,10.38
2022-10-02T00:13:57.568Z,6.60
2022-10-02T00:16:30.551Z,6.65
2022-10-02T00:18:58.857Z,6.10
2022-10-02T00:21:52.532Z,7.20
2022-10-02T00:24:25.289Z,7.82
2022-10-02T00:26:58.239Z,9.27
2022-10-02T00:29:34.369Z,7.25
2022-10-02T00:32:16.566Z,8.57
2022-10-02T00:34:58.195Z,7.03
2022-10-02T00:37:35.234Z,8.77
2022-10-02T00:40:26.998Z,6.50
2022-10-02T00:43:06.425Z,6.80
2022-10-02T00:46:03.651Z,6.13
2022-10-02T00:48:58.554Z,8.48
2022-10-02T00:51:38.041Z,9.38
2022-10-02T00:54:21.008Z,7.38
2022-10-02T00:56:59.572Z,10.27
2022-10-02T00:59:44.810Z,9.63
2022-10-02T01:02:35.113Z,7.35
2022-10-02T01:05:10.665Z,7.65
2022-10-02T01:07:42.889Z,7.30
2022-10-02T01:10:12.837Z,6.78
2022-10-02T01:12:41.237Z,8.52
2022-10-02T01:15:13.398Z,9.45
2022-10-02T01:17:42.304Z,7.60
2022-10-02T01:20:17.751Z,9.30
2022-10-02T01:22:53.770Z,6.65
2022-10-02T01:25:23.320Z,6.93
2022-10-02T01:27:53.542Z,6.57
2022-10-02T01:30:22.773Z,5.82
2022-10-02T01:32:53.539Z,7.72
2022-10-02T01:35:25.966Z,6.72
2022-10-02T01:37:56.422Z,7.07
2022-10-02T01:40:28.309Z,8.32
2022-10-02T01:42:58.424Z,9.80
2022-10-02T01:45:47.568Z,6.78
2022-10-02T01:48:22.930Z,6.20
2022-10-02T01:51:06.146Z,9.15
2022-10-02T01:53:44.003Z,6.80
2022-10-02T01:56:20.203Z,6.50
2022-10-02T01:58:57.807Z,7.78
2022-10-02T02:01:44.845Z,7.38
2022-10-02T02:04:22.365Z,8.18
2022-10-02T02:06:57.787Z,6.28
2022-10-02T02:09:33.036Z,6.63
2022-10-02T02:12:10.088Z,10.48
2022-10-02T02:14:43.625Z,7.45
2022-10-02T02:17:16.402Z,7.32
2022-10-02T02:19:50.180Z,7.72
2022-10-02T02:22:23.614Z,9.27
2022-10-02T02:24:56.401Z,6.90
2022-10-02T02:27:29.512Z,10.00
2022-10-02T02:30:04.002Z,8.50
2022-10-02T02:32:36.589Z,6.68
2022-10-02T02:35:08.903Z,7.18
2022-10-02T02:37:40.967Z,7.93
2022-10-02T02:40:14.786Z,7.93
2022-10-02T02:42:50.647Z,6.22
2022-10-02T02:45:22.608Z,7.45
2022-10-02T02:47:53.917Z,8.23
2022-10-02T02:50:25.767Z,8.52
2022-10-02T02:52:59.022Z,8.43
2022-10-02T02:55:33.490Z,7.18
2022-10-02T02:58:08.941Z,5.78
2022-10-02T03:00:37.207Z,6.63
2022-10-02T03:03:05.434Z,6.47
2022-10-02T03:05:34.658Z,6.63
2022-10-02T03:08:06.270Z,5.93
2022-10-02T03:10:47.175Z,7.75
2022-10-02T03:13:30.543Z,5.82
2022-10-02T03:16:12.989Z,7.50
2022-10-02T03:18:55.703Z,7.30
2022-10-02T03:21:29.753Z,7.18
2022-10-02T03:24:05.493Z,5.93
2022-10-02T03:26:39.732Z,5.30
2022-10-02T03:29:15.152Z,5.80
2022-10-02T03:31:44.396Z,4.80
2022-10-02T03:34:13.422Z,4.80
2022-10-02T03:36:41.563Z,4.97
2022-10-02T03:39:24.655Z,8.13
2022-10-02T03:41:54.401Z,5.55
2022-10-02T03:44:23.731Z,7.55
2022-10-02T03:46:51.790Z,5.57
2022-10-02T03:49:19.787Z,6.95
2022-10-02T03:51:47.823Z,5.97
2022-10-02T03:54:18.675Z,7.63
2022-10-02T03:56:55.492Z,6.22
2022-10-02T03:59:37.133Z,5.97
2022-10-02T04:02:10.499Z,6.82
2022-10-02T04:04:47.346Z,6.22
2022-10-02T04:07:23.002Z,6.55
2022-10-02T04:09:55.456Z,6.93
2022-10-02T04:12:28.265Z,5.50
2022-10-02T04:15:03.167Z,5.20
2022-10-02T04:17:38.066Z,4.72
2022-10-02T04:20:12.030Z,6.40
2022-10-02T04:22:42.718Z,4.55
2022-10-02T04:25:15.547Z,5.68
2022-10-02T04:27:49.340Z,5.70
2022-10-02T04:30:20.505Z,6.90
2022-10-02T04:32:49.417Z,6.93
2022-10-02T04:35:21.289Z,5.78
2022-10-02T04:38:03.534Z,6.20
2022-10-02T04:40:54.639Z,6.18
2022-10-02T04:43:37.992Z,4.75
2022-10-02T04:46:19.270Z,5.90
2022-10-02T04:49:05.436Z,6.95
2022-10-02T04:51:52.569Z,5.45
2022-10-02T04:54:46.517Z,6.43
2022-10-02T04:57:32.713Z,5.70
2022-10-02T05:00:07.595Z,5.38
2022-10-02T05:02:57.774Z,6.50
2022-10-02T05:05:41.065Z,5.53
2022-10-02T05:08:29.307Z,5.18
2022-10-02T05:11:24.581Z,6.20
2022-10-02T05:14:07.286Z,4.88
2022-10-02T05:16:57.326Z,7.13
2022-10-02T05:19:39.029Z,5.43
2022-10-02T05:22:29.399Z,7.25
2022-10-02T05:25:12.607Z,6.22
2022-10-02T05:28:00.635Z,6.03
2022-10-02T05:30:34.598Z,6.32
2022-10-02T05:33:24.184Z,5.90
2022-10-02T05:36:10.336Z,6.47
2022-10-02T05:39:00.895Z,4.80
2022-10-02T05:41:38.740Z,4.75
2022-10-02T05:44:13.530Z,6.60
2022-10-02T05:46:46.983Z,4.40
2022-10-02T05:49:22.037Z,5.88
2022-10-02T05:51:58.095Z,6.00
2022-10-02T05:54:43.037Z,4.65
2022-10-02T05:57:17.902Z,7.85
2022-10-02T05:59:57.226Z,5.05
2022-10-02T06:02:38.868Z,3.60
2022-10-02T06:05:16.231Z,4.93
2022-10-02T06:07:49.878Z,4.18
2022-10-02T06:10:22.750Z,8.52
2022-10-02T06:12:56.772Z,3.97
2022-10-02T06:15:32.029Z,3.70
2022-10-02T06:18:05.240Z,3.65
2022-10-02T06:20:38.877Z,3.53
2022-10-02T06:23:14.210Z,4.43
2022-10-02T06:25:46.133Z,4.15
2022-10-02T06:28:19.243Z,5.25
2022-10-02T06:30:54.054Z,5.75
2022-10-02T06:33:24.953Z,6.40
2022-10-02T06:36:04.936Z,3.90
2022-10-02T06:38:48.715Z,4.70
2022-10-02T06:41:25.056Z,5.18
2022-10-02T06:44:13.722Z,4.68
2022-10-02T06:46:52.433Z,5.13
2022-10-02T06:49:31.046Z,5.00
2022-10-02T06:52:09.526Z,4.13
2022-10-02T06:55:04.569Z,4.90
2022-10-02T06:57:59.478Z,5.60
2022-10-02T07:00:27.411Z,5.07
2022-10-02T07:03:31.680Z,4.93
2022-10-02T07:06:17.178Z,4.78
2022-10-02T07:09:21.073Z,3.17
2022-10-02T07:11:55.577Z,4.43
2022-10-02T07:14:41.617Z,4.68
2022-10-02T07:17:26.674Z,3.80
2022-10-02T07:20:29.574Z,3.22
2022-10-02T07:23:13.921Z,2.78
2022-10-02T07:26:03.315Z,3.75
2022-10-02T07:28:42.289Z,2.90
2022-10-02T07:31:21.527Z,4.93
2022-10-02T07:34:03.193Z,3.28
2022-10-02T07:36:44.294Z,3.35
2022-10-02T07:39:25.608Z,3.42
2022-10-02T07:42:18.299Z,3.17
2022-10-02T07:45:12.552Z,4.35
2022-10-02T07:48:00.533Z,4.78
2022-10-02T07:50:34.302Z,4.82
2022-10-02T07:53:10.393Z,4.05
2022-10-02T07:55:42.412Z,4.28
2022-10-02T07:58:15.687Z,2.60
2022-10-02T08:00:50.274Z,2.83
2022-10-02T08:03:21.282Z,5.78
2022-10-02T08:05:52.653Z,3.10
2022-10-02T08:08:25.323Z,3.45
2022-10-02T08:10:57.434Z,4.05
2022-10-02T08:13:32.482Z,3.20
2022-10-02T08:16:05.128Z,5.53
2022-10-02T08:18:37.774Z,4.30
2022-10-02T08:21:12.443Z,2.92
2022-10-02T08:23:45.066Z,3.10
2022-10-02T08:26:17.805Z,4.32
2022-10-02T08:28:53.659Z,3.58
2022-10-02T08:31:24.442Z,4.05
2022-10-02T08:33:52.514Z,3.63
2022-10-02T08:36:50.208Z,3.17
2022-10-02T08:39:37.946Z,4.75
2022-10-02T08:42:47.381Z,4.32
2022-10-02T08:45:56.412Z,2.88
2022-10-02T08:49:09.339Z,3.75
2022-10-02T08:52:14.881Z,2.90
2022-10-02T08:55:10.753Z,2.78
2022-10-02T08:58:15.540Z,2.28
2022-10-02T09:00:55.439Z,2.08
2022-10-02T09:03:54.678Z,4.55
2022-10-02T09:06:58.977Z,4.50
2022-10-02T09:10:02.490Z,3.15
2022-10-02T09:13:11.062Z,3.92
2022-10-02T09:15:46.846Z,3.72
2022-10-02T09:18:26.653Z,3.53
2022-10-02T09:21:18.696Z,2.50
2022-10-02T09:24:21.879Z,3.58
2022-10-02T09:27:08.858Z,5.97
2022-10-02T09:30:04.859Z,3.10
2022-10-02T09:33:11.635Z,3.90
2022-10-02T09:36:01.914Z,2.95
2022-10-02T09:39:09.765Z,3.08
2022-10-02T09:42:24.394Z,3.03
2022-10-02T09:45:30.225Z,4.38
2022-10-02T09:48:54.923Z,3.50
2022-10-02T09:52:06.780Z,2.90
2022-10-02T09:55:17.270Z,2.70
2022-10-02T09:58:18.834Z,3.33
2022-10-02T10:01:19.247Z,4.55
2022-10-02T10:04:53.780Z,6.03
2022-10-02T10:07:58.636Z,2.75
2022-10-02T10:10:54.210Z,3.92
2022-10-02T10:13:54.374Z,2.53
2022-10-02T10:16:55.943Z,3.17
2022-10-02T10:19:59.475Z,2.53
2022-10-02T10:23:03.662Z,2.65
2022-10-02T10:26:17.973Z,3.17
2022-10-02T10:29:16.395Z,2.70
2022-10-02T10:32:27.458Z,3.35
2022-10-02T10:35:24.813Z,4.50
2022-10-02T10:38:33.009Z,4.30
2022-10-02T10:41:26.745Z,2.47
2022-10-02T10:44:39.117Z,5.28
2022-10-02T10:47:34.610Z,3.00
2022-10-02T10:50:20.742Z,2.65
2022-10-02T10:53:07.706Z,2.25
2022-10-02T10:55:54.473Z,2.60
2022-10-02T10:58:36.840Z,4.13
2022-10-02T11:01:14.441Z,4.43
2022-10-02T11:04:07.865Z,3.88
2022-10-02T11:06:56.405Z,3.45
2022-10-02T11:09:58.348Z,3.78
2022-10-02T11:13:01.123Z,3.97
2022-10-02T11:15:51.061Z,4.90
2022-10-02T11:18:28.710Z,4.68
2022-10-02T11:21:31.601Z,4.63
2022-10-02T11:24:32.160Z,4.43
2022-10-02T11:27:20.029Z,4.93
2022-10-02T11:30:15.491Z,6.00
2022-10-02T11:33:16.474Z,5.60
2022-10-02T11:36:09.634Z,5.03
2022-10-02T11:39:14.201Z,5.57
2022-10-02T11:42:14.021Z,5.32
2022-10-02T11:45:05.837Z,5.55
2022-10-02T11:47:51.191Z,5.90
2022-10-02T11:50:49.206Z,4.88
2022-10-02T11:53:43.229Z,6.90
2022-10-02T11:56:36.053Z,5.75
2022-10-02T11:59:34.813Z,3.35
2022-10-02T12:02:16.206Z,5.35
2022-10-02T12:04:58.481Z,3.13
2022-10-02T12:07:39.465Z,3.40
2022-10-02T12:10:32.592Z,4.05
2022-10-02T12:13:16.262Z,4.82
2022-10-02T12:15:56.241Z,4.40
2022-10-02T12:18:33.731Z,3.13
2022-10-02T12:21:37.236Z,4.15
2022-10-02T12:24:34.920Z,6.25
2022-10-02T12:27:11.857Z,4.32
2022-10-02T12:29:59.426Z,4.68
2022-10-02T12:32:58.919Z,3.60
2022-10-02T12:35:52.100Z,5.03
2022-10-02T12:38:34.868Z,3.85
2022-10-02T12:41:13.284Z,3.65
2022-10-02T12:44:06.058Z,4.07
2022-10-02T12:46:51.243Z,3.53
2022-10-02T12:49:36.517Z,3.70
2022-10-02T12:52:36.194Z,4.65
2022-10-02T12:55:39.644Z,4.65
2022-10-02T12:58:18.304Z,6.57
2022-10-02T13:01:17.262Z,5.55
2022-10-02T13:04:17.159Z,4.50
2022-10-02T13:07:26.188Z,5.45
2022-10-02T13:10:03.279Z,6.40
2022-10-02T13:12:54.653Z,5.47
2022-10-02T13:15:40.025Z,5.88
2022-10-02T13:18:21.543Z,5.28
2022-10-02T13:21:04.289Z,4.90
2022-10-02T13:23:42.191Z,6.05
2022-10-02T13:26:21.253Z,7.95
2022-10-02T13:29:10.936Z,5.35
2022-10-02T13:31:51.053Z,5.95
2022-10-02T13:34:38.718Z,6.22
2022-10-02T13:37:17.379Z,4.80
2022-10-02T13:40:03.074Z,6.63
2022-10-02T13:42:41.307Z,4.95
2022-10-02T13:45:19.578Z,6.13
2022-10-02T13:47:58.972Z,5.93
2022-10-02T13:50:50.271Z,5.20
2022-10-02T13:53:36.830Z,5.85
2022-10-02T13:56:18.642Z,6.13
2022-10-02T13:59:06.642Z,6.13
2022-10-02T14:01:50.110Z,5.85
2022-10-02T14:04:46.264Z,6.60
2022-10-02T14:07:33.605Z,5.03
2022-10-02T14:10:11.086Z,8.55
2022-10-02T14:12:50.531Z,6.07
2022-10-02T14:15:51.045Z,5.18
2022-10-02T14:18:45.653Z,4.60
2022-10-02T14:21:23.141Z,5.53
2022-10-02T14:24:15.905Z,6.93
2022-10-02T14:27:02.114Z,5.95
2022-10-02T14:29:39.899Z,5.95
2022-10-02T14:32:31.267Z,6.43
2022-10-02T14:35:25.570Z,5.78
2022-10-02T14:38:25.725Z,7.40
2022-10-02T14:40:55.057Z,8.25
2022-10-02T14:43:51.833Z,6.55
2022-10-02T14:46:30.236Z,8.90
2022-10-02T14:49:13.495Z,6.18
2022-10-02T14:52:12.130Z,6.43
2022-10-02T14:54:53.491Z,7.13
2022-10-02T14:57:37.673Z,7.18
2022-10-02T15:00:18.153Z,6.40
2022-10-02T15:03:11.073Z,6.97
2022-10-02T15:06:09.613Z,6.78
2022-10-02T15:08:43.996Z,6.88
2022-10-02T15:11:23.012Z,9.38
2022-10-02T15:13:56.220Z,7.13
2022-10-02T15:16:47.279Z,7.72
2022-10-02T15:19:20.101Z,10.45
2022-10-02T15:21:53.906Z,7.22
2022-10-02T15:24:35.037Z,11.60
2022-10-02T15:27:22.808Z,7.00
2022-10-02T15:30:15.322Z,5.72
2022-10-02T15:33:13.603Z,7.30
2022-10-02T15:36:10.505Z,6.00
2022-10-02T15:39:04.848Z,6.15
2022-10-02T15:41:44.637Z,7.25
2022-10-02T15:44:36.478Z,6.07
2022-10-02T15:47:19.549Z,5.82
2022-10-02T15:50:05.151Z,6.82
2022-10-02T15:52:46.561Z,6.80
2022-10-02T15:55:25.146Z,7.55
2022-10-02T15:58:08.647Z,6.45
2022-10-02T16:01:01.751Z,6.90
2022-10-02T16:03:39.911Z,7.63
2022-10-02T16:06:14.526Z,7.00
2022-10-02T16:09:03.642Z,7.57
2022-10-02T16:11:54.998Z,7.30
2022-10-02T16:14:40.080Z,5.05
2022-10-02T16:17:37.157Z,5.15
2022-10-02T16:20:21.032Z,5.32
2022-10-02T16:23:09.613Z,5.63
2022-10-02T16:26:00.544Z,6.13
2022-10-02T16:28:52.775Z,5.97
2022-10-02T16:31:47.662Z,4.70
2022-10-02T16:34:29.077Z,3.60
2022-10-02T16:37:03.592Z,4.50
2022-10-02T16:39:44.405Z,3.38
2022-10-02T16:42:23.346Z,3.78
2022-10-02T16:45:03.634Z,3.20
2022-10-02T16:47:44.805Z,3.75
2022-10-02T16:50:19.156Z,5.85
2022-10-02T16:52:53.512Z,2.90
2022-10-02T16:55:30.405Z,3.55
2022-10-02T16:58:10.521Z,3.08
2022-10-02T17:00:41.993Z,3.50
2022-10-02T17:03:21.773Z,4.38
2022-10-02T17:05:55.188Z,4.55
2022-10-02T17:08:31.649Z,2.85
2022-10-02T17:11:21.847Z,2.83
2022-10-02T17:14:03.504Z,4.00
2022-10-02T17:16:37.880Z,4.70
2022-10-02T17:19:20.642Z,3.42
2022-10-02T17:21:54.482Z,3.30
2022-10-02T17:24:35.595Z,3.72
2022-10-02T17:27:14.093Z,4.63
2022-10-02T17:29:51.612Z,2.88
2022-10-02T17:32:39.853Z,3.90
2022-10-02T17:35:16.922Z,5.00
2022-10-02T17:38:24.283Z,3.05
2022-10-02T17:41:00.210Z,9.60
2022-10-02T17:43:37.254Z,4.28
2022-10-02T17:46:30.496Z,4.88
2022-10-02T17:49:05.397Z,4.78
2022-10-02T17:51:52.694Z,5.13
2022-10-02T17:54:58.746Z,3.35
2022-10-02T17:57:39.729Z,4.40
2022-10-02T18:00:16.577Z,5.22
2022-10-02T18:03:10.402Z,3.35
2022-10-02T18:05:51.160Z,3.08
2022-10-02T18:08:41.394Z,6.93
2022-10-02T18:11:20.862Z,5.22
2022-10-02T18:13:59.843Z,3.65
2022-10-02T18:16:36.974Z,4.45
2022-10-02T18:19:29.051Z,6.70
2022-10-02T18:22:12.948Z,4.90
2022-10-02T18:25:12.487Z,4.07
2022-10-02T18:28:08.164Z,3.63
2022-10-02T18:30:46.187Z,5.30
2022-10-02T18:33:43.652Z,4.63
2022-10-02T18:36:39.025Z,8.18
2022-10-02T18:39:21.171Z,3.80
2022-10-02T18:41:57.247Z,6.32
2022-10-02T18:44:45.300Z,4.43
2022-10-02T18:47:29.020Z,5.28
2022-10-02T18:50:17.751Z,3.97
2022-10-02T18:53:11.602Z,5.72
2022-10-02T18:56:02.820Z,7.70
2022-10-02T18:58:44.482Z,7.03
2022-10-02T19:01:42.162Z,5.65
2022-10-02T19:04:45.433Z,2.72
2022-10-02T19:07:19.949Z,5.65
2022-10-02T19:09:53.145Z,4.35
2022-10-02T19:12:25.687Z,3.70
2022-10-02T19:15:15.677Z,6.88
2022-10-02T19:17:58.591Z,4.45
2022-10-02T19:20:47.947Z,3.78
2022-10-02T19:23:26.584Z,2.88
2022-10-02T19:25:57.675Z,5.82
2022-10-02T19:28:29.673Z,4.28
2022-10-02T19:31:03.951Z,4.53
2022-10-02T19:33:43.543Z,6.15
2022-10-02T19:36:18.111Z,5.03
2022-10-02T19:38:53.400Z,3.03
2022-10-02T19:41:23.592Z,5.00
2022-10-02T19:43:58.226Z,3.50
2022-10-02T19:46:37.448Z,3.70
2022-10-02T19:49:07.646Z,4.47
2022-10-02T19:51:46.320Z,4.10
2022-10-02T19:54:19.908Z,2.97
2022-10-02T19:56:48.655Z,3.47
2022-10-02T19:59:20.189Z,3.10
2022-10-02T20:01:53.127Z,3.25
2022-10-02T20:04:23.234Z,2.60
2022-10-02T20:06:54.805Z,2.15
2022-10-02T20:09:29.493Z,3.00
2022-10-02T20:12:01.177Z,2.65
2022-10-02T20:14:33.892Z,3.72
2022-10-02T20:17:09.030Z,2.88
2022-10-02T20:19:41.298Z,2.53
2022-10-02T20:22:17.677Z,2.42
2022-10-02T20:24:52.356Z,2.83
2022-10-02T20:27:29.137Z,4.07
2022-10-02T20:30:04.571Z,2.47
2022-10-02T20:32:38.372Z,3.35
2022-10-02T20:35:15.365Z,1.10
2022-10-02T20:37:44.124Z,4.65
2022-10-02T20:40:18.866Z,3.15
2022-10-02T20:42:54.124Z,2.10
2022-10-02T20:45:29.210Z,1.95
2022-10-02T20:48:49.205Z,2.45
2022-10-02T20:51:39.866Z,3.38
2022-10-02T20:54:27.666Z,1.42
2022-10-02T20:57:14.939Z,8.32
2022-10-02T21:00:15.086Z,2.28
2022-10-02T21:03:08.964Z,2.58
2022-10-02T21:05:57.490Z,3.65
2022-10-02T21:08:50.090Z,2.53
2022-10-02T21:11:25.762Z,1.73
2022-10-02T21:14:23.366Z,1.52
2022-10-02T21:17:29.290Z,1.73
2022-10-02T21:20:49.734Z,1.98
2022-10-02T21:23:46.824Z,1.40
2022-10-02T21:26:43.268Z,2.45
2022-10-02T21:29:24.181Z,1.67
2022-10-02T21:32:17.046Z,2.20
2022-10-02T21:34:59.738Z,2.17
2022-10-02T21:37:44.783Z,2.10
2022-10-02T21:40:51.165Z,3.55
2022-10-02T21:44:03.715Z,3.33
2022-10-02T21:47:15.000Z,2.85
2022-10-02T21:50:20.337Z,1.80
2022-10-02T21:53:17.921Z,3.00
2022-10-02T21:56:05.663Z,1.40
2022-10-02T21:59:13.240Z,1.73
2022-10-02T22:02:09.757Z,2.15
2022-10-02T22:04:56.645Z,2.13
2022-10-02T22:07:33.637Z,2.53
2022-10-02T22:10:10.233Z,1.70
2022-10-02T22:12:51.520Z,1.73
2022-10-02T22:15:24.847Z,1.30
2022-10-02T22:18:00.645Z,1.38
2022-10-02T22:21:12.428Z,2.13
2022-10-02T22:23:56.514Z,2.90
2022-10-02T22:26:38.394Z,1.30
2022-10-02T22:29:14.461Z,1.73
2022-10-02T22:32:38.135Z,1.83
2022-10-02T22:35:19.475Z,1.33
2022-10-02T22:38:05.005Z,1.40
2022-10-02T22:40:44.262Z,1.30
2022-10-02T22:43:20.712Z,1.50
2022-10-02T22:45:54.177Z,3.30
2022-10-02T22:48:30.958Z,1.50
2022-10-02T22:51:11.117Z,1.80
2022-10-02T22:53:46.166Z,1.70
2022-10-02T22:56:25.273Z,1.38
2022-10-02T22:59:00.593Z,1.52
2022-10-02T23:01:38.680Z,1.73
2022-10-02T23:04:20.108Z,2.30
2022-10-02T23:06:56.057Z,1.95
2022-10-02T23:09:29.113Z,1.35
2022-10-02T23:12:06.068Z,2.42
2022-10-02T23:14:44.598Z,1.50
2022-10-02T23:17:19.504Z,1.60
2022-10-02T23:19:55.722Z,2.55
2022-10-02T23:22:31.002Z,1.83
2022-10-02T23:25:18.434Z,1.80
2022-10-02T23:27:55.384Z,1.52
2022-10-02T23:30:24.664Z,2.47
2022-10-02T23:32:58.541Z,1.63
2022-10-02T23:35:32.073Z,1.70
2022-10-02T23:38:08.508Z,1.40
2022-10-02T23:41:10.285Z,3.25
2022-10-02T23:43:55.660Z,2.63
2022-10-02T23:46:29.829Z,1.52
2022-10-02T23:48:57.970Z,1.67
2022-10-02T23:51:38.389Z,2.28
2022-10-02T23:54:33.778Z,1.48
2022-10-02T23:57:32.637Z,1.98
